Time;durP1;ratioP1;P1;durP2;ratioP2;P2;SDS_P1;SDS_P2;PMS_P1;PMS_P2;Temp;Humidity;BMP_temperature;BMP_pressure;BME280_temperature;BME280_humidity;BME280_pressure;Samples;Min_cycle;Max_cycle;Signal;HPM_P1;HPM_P2
2022/02/12 00:00:05;;;;;;;;;;;;;;;7.65;53.64;100964.01;117337;1183;23534;-56
2022/02/12 00:02:34;;;;;;;;;;;;;;;7.66;53.79;100963.33;117377;1185;21836;-58
2022/02/12 00:05:03;;;;;;;;;;;;;;;7.69;53.89;100971.21;117351;1189;21834;-56
2022/02/12 00:07:32;;;;;;;;;;;;;;;7.68;53.78;100968.94;117427;1183;21904;-58
2022/02/12 00:10:01;;;;;;;;;;;;;;;7.67;53.78;100968.58;117374;1183;21835;-57
2022/02/12 00:12:29;;;;;;;;;;;;;;;7.66;53.95;100966.81;117424;1185;21836;-57
2022/02/12 00:14:57;;;;;;;;;;;;;;;7.66;53.99;100973.28;117400;1185;21839;-58
2022/02/12 00:17:25;;;;;;;;;;;;;;;7.67;53.82;100970.50;117382;1182;21879;-60
2022/02/12 00:19:53;;;;;;;;;;;;;;;7.69;53.99;100972.44;117390;1184;21844;-57
2022/02/12 00:22:22;;;;;;;;;;;;;;;7.69;54.13;100966.33;117396;1184;21838;-55
2022/02/12 00:24:50;;;;;;;;;;;;;;;7.69;53.99;100967.20;117385;1186;21994;-57
2022/02/12 00:27:18;;;;;;;;;;;;;;;7.70;53.90;100965.83;117341;1185;21839;-57
2022/02/12 00:29:46;;;;;;;;;;;;;;;7.72;53.87;100964.77;117406;1185;22305;-59
2022/02/12 00:32:14;;;;;;;;;;;;;;;7.75;53.93;100964.97;117375;1182;23503;-56
2022/02/12 00:34:42;;;;;;;;;;;;;;;7.71;53.94;100959.02;117373;1183;21835;-58
2022/02/12 00:37:10;;;;;;;;;;;;;;;7.71;53.90;100956.38;117315;1185;21921;-56
2022/02/12 00:39:39;;;;;;;;;;;;;;;7.69;53.91;100954.09;117380;1185;23488;-58
2022/02/12 00:42:07;;;;;;;;;;;;;;;7.65;53.76;100953.35;117447;1183;21835;-56
2022/02/12 00:44:36;;;;;;;;;;;;;;;7.60;54.01;100953.83;117430;1182;21826;-58
2022/02/12 00:47:06;;;;;;;;;;;;;;;7.55;53.78;100957.45;117361;1185;21836;-58
2022/02/12 00:49:35;;;;;;;;;;;;;;;7.50;53.85;100959.34;117370;1185;23534;-58
2022/02/12 00:52:03;;;;;;;;;;;;;;;7.47;54.03;100958.79;117229;1185;21836;-57
2022/02/12 00:54:32;;;;;;;;;;;;;;;7.43;53.94;100958.39;117521;1185;21846;-55
2022/02/12 00:57:00;;;;;;;;;;;;;;;7.39;53.75;100955.56;117382;1183;22809;-57
2022/02/12 00:59:28;;;;;;;;;;;;;;;7.37;53.79;100954.48;117355;1188;21851;-57
2022/02/12 01:01:57;;;;;;;;;;;;;;;7.36;53.83;100953.61;117373;1184;22173;-57
2022/02/12 01:04:25;;;;;;;;;;;;;;;7.33;53.87;100951.48;117362;1186;23507;-58
2022/02/12 01:06:55;;;;;;;;;;;;;;;7.31;53.79;100947.60;117405;1185;21870;-57
2022/02/12 01:09:23;;;;;;;;;;;;;;;7.29;54.01;100945.67;117361;1184;21835;-56
2022/02/12 01:11:51;;;;;;;;;;;;;;;7.28;53.97;100947.77;117305;1183;22055;-56
2022/02/12 01:14:19;;;;;;;;;;;;;;;7.26;53.66;100944.77;117330;1185;21839;-57
2022/02/12 01:16:48;;;;;;;;;;;;;;;7.24;54.07;100944.77;117310;1185;21839;-58
2022/02/12 01:19:16;;;;;;;;;;;;;;;7.23;53.84;100944.05;117443;1182;21846;-56
2022/02/12 01:21:45;;;;;;;;;;;;;;;7.20;53.91;100943.48;117425;1185;21829;-58
2022/02/12 01:24:13;;;;;;;;;;;;;;;7.20;53.90;100942.95;117434;1186;22187;-55
2022/02/12 01:26:41;;;;;;;;;;;;;;;7.18;53.73;100943.48;117399;1185;21838;-57
2022/02/12 01:29:10;;;;;;;;;;;;;;;7.18;53.77;100941.02;117439;1182;21835;-58
2022/02/12 01:31:38;;;;;;;;;;;;;;;7.18;53.81;100941.36;117379;1182;21823;-58
2022/02/12 01:34:06;;;;;;;;;;;;;;;7.18;53.90;100940.50;117443;1184;23413;-57
2022/02/12 01:36:35;;;;;;;;;;;;;;;7.21;53.88;100941.75;117460;1183;21838;-55
2022/02/12 01:39:04;;;;;;;;;;;;;;;7.22;54.01;100938.29;117433;1182;23243;-58
2022/02/12 01:41:32;;;;;;;;;;;;;;;7.23;54.08;100941.09;117432;1184;22627;-55
2022/02/12 01:44:07;;;;;;;;;;;;;;;7.26;54.13;100940.42;117403;1182;23540;-55
2022/02/12 01:46:35;;;;;;;;;;;;;;;7.29;54.16;100941.84;117371;1186;21891;-56
2022/02/12 01:49:03;;;;;;;;;;;;;;;7.31;54.04;100943.95;117406;1182;22910;-56
2022/02/12 01:51:32;;;;;;;;;;;;;;;7.34;54.21;100941.89;117392;1185;21841;-55
2022/02/12 01:54:00;;;;;;;;;;;;;;;7.37;54.28;100941.58;117358;1185;22837;-56
2022/02/12 01:56:28;;;;;;;;;;;;;;;7.40;54.08;100947.19;117415;1183;21845;-59
2022/02/12 01:58:56;;;;;;;;;;;;;;;7.38;54.06;100940.70;117344;1185;21848;-57
2022/02/12 02:01:24;;;;;;;;;;;;;;;7.38;54.14;100940.71;117365;1182;21835;-57
2022/02/12 02:03:53;;;;;;;;;;;;;;;7.39;54.07;100939.33;117246;1185;21835;-57
2022/02/12 02:06:21;;;;;;;;;;;;;;;7.41;54.25;100935.15;117395;1182;21839;-57
2022/02/12 02:08:58;;;;;;;;;;;;;;;7.43;54.11;100936.05;117270;1185;23439;-57
2022/02/12 02:11:26;;;;;;;;;;;;;;;7.42;54.06;100932.20;117384;1185;21836;-56
2022/02/12 02:13:57;;;;;;;;;;;;;;;7.43;54.12;100930.11;117185;1185;21839;-56
2022/02/12 02:16:25;;;;;;;;;;;;;;;7.45;54.36;100930.30;117337;1182;21838;-56
2022/02/12 02:18:53;;;;;;;;;;;;;;;7.47;54.08;100927.86;117386;1185;22920;-56
2022/02/12 02:21:22;;;;;;;;;;;;;;;7.48;54.05;100923.53;117349;1185;21878;-57
2022/02/12 02:23:50;;;;;;;;;;;;;;;7.49;54.04;100915.33;117345;1185;22967;-57
2022/02/12 02:26:19;;;;;;;;;;;;;;;7.50;54.31;100898.73;117387;1185;21829;-60
2022/02/12 02:28:48;;;;;;;;;;;;;;;7.52;54.16;100895.42;117351;1183;21835;-56
2022/02/12 02:31:16;;;;;;;;;;;;;;;7.53;54.16;100895.27;117418;1185;22890;-56
2022/02/12 02:33:44;;;;;;;;;;;;;;;7.52;54.17;100894.38;117271;1185;21848;-58
2022/02/12 02:36:14;;;;;;;;;;;;;;;7.47;53.99;100898.90;117415;1182;23443;-58
2022/02/12 02:38:42;;;;;;;;;;;;;;;7.44;53.88;100897.98;117328;1182;22034;-56
2022/02/12 02:41:10;;;;;;;;;;;;;;;7.43;54.10;100902.52;117385;1185;23541;-58
2022/02/12 02:43:40;;;;;;;;;;;;;;;7.43;54.42;100904.44;117415;1185;23043;-56
2022/02/12 02:46:15;;;;;;;;;;;;;;;7.45;53.91;100912.84;117388;1185;23449;-56
2022/02/12 02:48:44;;;;;;;;;;;;;;;7.48;54.15;100917.06;117384;1182;21853;-56
2022/02/12 02:56:45;;;;;;;;;;;;;;;7.46;54.14;100929.61;117374;1185;21857;-57
2022/02/12 02:59:13;;;;;;;;;;;;;;;7.45;54.03;100933.27;117388;1182;22812;-57
2022/02/12 03:01:41;;;;;;;;;;;;;;;7.42;54.07;100935.51;117423;1182;21836;-57
2022/02/12 03:04:09;;;;;;;;;;;;;;;7.33;54.03;100942.39;117404;1182;21908;-57
2022/02/12 03:06:37;;;;;;;;;;;;;;;7.23;53.90;100951.73;117363;1183;21836;-57
2022/02/12 03:09:05;;;;;;;;;;;;;;;7.12;53.94;100959.46;117529;1185;21891;-58
2022/02/12 03:11:34;;;;;;;;;;;;;;;6.99;53.61;100964.02;117381;1182;21903;-58
2022/02/12 03:14:02;;;;;;;;;;;;;;;6.82;53.84;100962.06;117360;1182;23554;-58
2022/02/12 03:16:31;;;;;;;;;;;;;;;6.68;53.98;100964.67;117377;1185;21845;-59
2022/02/12 03:18:59;;;;;;;;;;;;;;;6.56;53.79;100968.72;117406;1185;21832;-59
2022/02/12 03:21:27;;;;;;;;;;;;;;;6.47;53.78;100973.13;117424;1185;21835;-57
2022/02/12 03:23:56;;;;;;;;;;;;;;;6.39;53.75;100984.00;117418;1185;21826;-58
2022/02/12 03:26:24;;;;;;;;;;;;;;;6.35;53.95;100994.05;117413;1185;21829;-57
2022/02/12 03:28:52;;;;;;;;;;;;;;;6.32;53.79;101003.94;117445;1186;21829;-59
2022/02/12 03:31:21;;;;;;;;;;;;;;;6.29;53.98;101007.55;117419;1183;21888;-57
2022/02/12 03:33:49;;;;;;;;;;;;;;;6.32;54.19;101009.16;117417;1182;21879;-58
2022/02/12 03:36:17;;;;;;;;;;;;;;;6.34;54.13;101008.67;117425;1185;21983;-58
2022/02/12 03:38:49;;;;;;;;;;;;;;;6.36;54.16;101012.02;117341;1185;23416;-58
2022/02/12 03:41:17;;;;;;;;;;;;;;;6.38;54.01;101017.27;117335;1184;21838;-57
2022/02/12 03:43:45;;;;;;;;;;;;;;;6.39;54.25;101013.82;117298;1185;23440;-57
2022/02/12 03:46:13;;;;;;;;;;;;;;;6.43;54.22;101016.13;117402;1185;21829;-57
2022/02/12 03:48:42;;;;;;;;;;;;;;;6.47;54.12;101025.42;117393;1185;21974;-57
2022/02/12 03:51:10;;;;;;;;;;;;;;;6.49;54.10;101029.98;117396;1182;21846;-56
2022/02/12 03:53:38;;;;;;;;;;;;;;;6.51;54.15;101033.16;117376;1185;21988;-56
2022/02/12 03:56:06;;;;;;;;;;;;;;;6.53;54.25;101034.77;117396;1185;23707;-57
2022/02/12 03:58:34;;;;;;;;;;;;;;;6.54;54.20;101036.36;117432;1185;21829;-58
2022/02/12 04:01:02;;;;;;;;;;;;;;;6.57;54.29;101044.25;117363;1185;21826;-57
2022/02/12 04:03:31;;;;;;;;;;;;;;;6.59;54.41;101042.19;117341;1185;22909;-56
2022/02/12 04:05:59;;;;;;;;;;;;;;;6.63;54.24;101045.36;117375;1182;23417;-57
2022/02/12 04:08:27;;;;;;;;;;;;;;;6.65;54.55;101041.04;117333;1185;21835;-58
2022/02/12 04:10:55;;;;;;;;;;;;;;;6.67;54.49;101043.50;117323;1185;21896;-55
2022/02/12 04:13:23;;;;;;;;;;;;;;;6.72;54.32;101046.89;117360;1185;21838;-58
2022/02/12 04:15:51;;;;;;;;;;;;;;;6.77;54.40;101050.45;117240;1185;21839;-57
2022/02/12 04:18:19;;;;;;;;;;;;;;;6.80;54.44;101055.55;117384;1185;23518;-55
2022/02/12 04:20:48;;;;;;;;;;;;;;;6.85;54.69;101058.95;117388;1183;21826;-56
2022/02/12 04:23:16;;;;;;;;;;;;;;;6.92;54.47;101063.73;117402;1185;21835;-56
2022/02/12 04:25:44;;;;;;;;;;;;;;;6.97;54.43;101066.24;117373;1185;23538;-58
2022/02/12 04:28:12;;;;;;;;;;;;;;;7.01;54.43;101064.21;117377;1185;21876;-58
2022/02/12 04:30:40;;;;;;;;;;;;;;;7.02;54.51;101069.29;117376;1186;21868;-59
2022/02/12 04:33:09;;;;;;;;;;;;;;;7.02;54.49;101073.48;117419;1183;22473;-58
2022/02/12 04:35:38;;;;;;;;;;;;;;;7.01;54.71;101076.59;117414;1183;21844;-58
2022/02/12 04:38:06;;;;;;;;;;;;;;;7.01;54.52;101083.23;117323;1183;24104;-58
2022/02/12 04:40:36;;;;;;;;;;;;;;;7.02;54.67;101095.98;117393;1189;21835;-58
2022/02/12 04:43:04;;;;;;;;;;;;;;;7.03;54.47;101101.77;117395;1186;23653;-58
2022/02/12 04:45:32;;;;;;;;;;;;;;;7.02;54.53;101104.19;117382;1185;21837;-56
2022/02/12 04:48:01;;;;;;;;;;;;;;;6.99;54.29;101112.35;117361;1182;23414;-58
2022/02/12 04:50:32;;;;;;;;;;;;;;;6.98;54.48;101114.44;117402;1186;21868;-56
2022/02/12 04:53:01;;;;;;;;;;;;;;;6.98;54.35;101115.81;117370;1185;23439;-56
2022/02/12 04:55:29;;;;;;;;;;;;;;;6.96;54.44;101118.25;117400;1185;22805;-59
2022/02/12 04:57:57;;;;;;;;;;;;;;;6.96;54.58;101123.30;117465;1186;23522;-58
2022/02/12 05:00:25;;;;;;;;;;;;;;;6.95;54.67;101128.88;117334;1185;23471;-57
2022/02/12 05:02:53;;;;;;;;;;;;;;;6.96;54.29;101130.29;117240;1182;23542;-57
2022/02/12 05:05:21;;;;;;;;;;;;;;;6.98;54.37;101135.55;117454;1182;23440;-56
2022/02/12 05:07:49;;;;;;;;;;;;;;;7.01;54.71;101143.60;117399;1188;21827;-57
2022/02/12 05:10:19;;;;;;;;;;;;;;;7.04;54.50;101146.11;117471;1185;21864;-56
2022/02/12 05:12:47;;;;;;;;;;;;;;;7.07;54.76;101146.84;117432;1184;23436;-56
2022/02/12 05:15:16;;;;;;;;;;;;;;;7.15;54.78;101150.95;117537;1184;21835;-59
2022/02/12 05:17:44;;;;;;;;;;;;;;;7.19;54.69;101153.63;117345;1185;23417;-59
2022/02/12 05:20:12;;;;;;;;;;;;;;;7.17;54.98;101151.16;117366;1185;23436;-57
2022/02/12 05:22:40;;;;;;;;;;;;;;;7.18;54.99;101162.17;117398;1185;21846;-57
2022/02/12 05:25:09;;;;;;;;;;;;;;;7.17;55.02;101162.16;117373;1185;24128;-58
2022/02/12 05:27:37;;;;;;;;;;;;;;;7.18;54.86;101165.48;117424;1185;23414;-59
2022/02/12 05:30:06;;;;;;;;;;;;;;;7.21;54.90;101173.04;117383;1186;23413;-57
2022/02/12 05:32:34;;;;;;;;;;;;;;;7.21;54.78;101173.91;117382;1185;22762;-58
2022/02/12 05:35:03;;;;;;;;;;;;;;;7.23;55.03;101179.89;117357;1186;21855;-58
2022/02/12 05:37:32;;;;;;;;;;;;;;;7.27;54.87;101186.58;117362;1186;21828;-57
2022/02/12 05:40:01;;;;;;;;;;;;;;;7.29;54.96;101188.34;117358;1185;21839;-56
2022/02/12 05:42:29;;;;;;;;;;;;;;;7.33;54.81;101192.06;117426;1185;21834;-55
2022/02/12 05:44:57;;;;;;;;;;;;;;;7.37;54.96;101195.62;117413;1186;22908;-58
2022/02/12 05:47:25;;;;;;;;;;;;;;;7.43;54.86;101193.42;117413;1186;22970;-57
2022/02/12 05:49:54;;;;;;;;;;;;;;;7.46;54.79;101196.45;117346;1186;24795;-58
2022/02/12 05:52:22;;;;;;;;;;;;;;;7.48;54.67;101196.45;117462;1185;21897;-58
2022/02/12 05:54:51;;;;;;;;;;;;;;;7.50;54.73;101203.12;117417;1184;24675;-56
2022/02/12 05:57:19;;;;;;;;;;;;;;;7.52;54.79;101211.70;117403;1185;21972;-56
2022/02/12 05:59:47;;;;;;;;;;;;;;;7.54;54.75;101213.48;117369;1185;23447;-56
2022/02/12 06:02:15;;;;;;;;;;;;;;;7.57;54.87;101215.27;117451;1185;21830;-58
2022/02/12 06:04:43;;;;;;;;;;;;;;;7.60;54.69;101221.77;117449;1184;21854;-58
2022/02/12 06:07:12;;;;;;;;;;;;;;;7.63;54.73;101224.09;117374;1185;21855;-58
2022/02/12 06:09:40;;;;;;;;;;;;;;;7.64;54.91;101225.49;117365;1183;23413;-55
2022/02/12 06:12:09;;;;;;;;;;;;;;;7.66;54.83;101226.39;117430;1185;21876;-56
2022/02/12 06:14:38;;;;;;;;;;;;;;;7.67;54.84;101227.98;117426;1185;21987;-58
2022/02/12 06:17:06;;;;;;;;;;;;;;;7.71;55.07;101226.63;117381;1185;23413;-57
2022/02/12 06:19:34;;;;;;;;;;;;;;;7.72;55.06;101232.42;117477;1185;21854;-56
2022/02/12 06:22:03;;;;;;;;;;;;;;;7.74;54.96;101235.05;117361;1186;21933;-56
2022/02/12 06:24:31;;;;;;;;;;;;;;;7.75;54.95;101245.02;117365;1185;22625;-57
2022/02/12 06:27:04;;;;;;;;;;;;;;;7.75;54.76;101254.63;117369;1185;21876;-58
2022/02/12 06:29:33;;;;;;;;;;;;;;;7.73;54.99;101275.40;117389;1181;23448;-56
2022/02/12 06:32:01;;;;;;;;;;;;;;;7.71;54.79;101287.42;117454;1183;21879;-57
2022/02/12 06:34:30;;;;;;;;;;;;;;;7.67;54.74;101291.56;117384;1186;23406;-56
2022/02/12 06:37:01;;;;;;;;;;;;;;;7.61;54.89;101290.42;117383;1183;21882;-56
2022/02/12 06:39:31;;;;;;;;;;;;;;;7.54;54.82;101285.44;117559;1183;23702;-58
2022/02/12 06:42:01;;;;;;;;;;;;;;;7.48;54.90;101303.52;117397;1185;21845;-58
2022/02/12 06:44:29;;;;;;;;;;;;;;;7.42;54.83;101313.20;117377;1183;23448;-55
2022/02/12 06:46:57;;;;;;;;;;;;;;;7.35;54.59;101309.92;117356;1185;21824;-56
2022/02/12 06:49:25;;;;;;;;;;;;;;;7.27;54.74;101319.77;117542;1185;21831;-57
2022/02/12 06:52:01;;;;;;;;;;;;;;;7.20;54.71;101334.15;117279;1185;21891;-59
2022/02/12 06:54:30;;;;;;;;;;;;;;;7.17;54.85;101329.91;117339;1185;23413;-59
2022/02/12 06:56:58;;;;;;;;;;;;;;;7.12;54.77;101332.60;117379;1185;24724;-59
2022/02/12 06:59:27;;;;;;;;;;;;;;;7.09;54.88;101337.80;117319;1188;21837;-57
2022/02/12 07:01:55;;;;;;;;;;;;;;;7.07;55.03;101346.66;117244;1186;21839;-57
2022/02/12 07:04:28;;;;;;;;;;;;;;;7.05;54.98;101351.52;117367;1185;23435;-58
2022/02/12 07:06:56;;;;;;;;;;;;;;;7.03;55.02;101350.95;117430;1185;23505;-58
2022/02/12 07:09:25;;;;;;;;;;;;;;;6.99;55.05;101356.65;117445;1185;21969;-57
2022/02/12 07:11:54;;;;;;;;;;;;;;;6.97;54.80;101367.95;117320;1186;22953;-57
2022/02/12 07:14:22;;;;;;;;;;;;;;;6.95;54.95;101374.19;117453;1183;21876;-56
2022/02/12 07:16:50;;;;;;;;;;;;;;;6.93;54.76;101374.69;117351;1182;24131;-56
2022/02/12 07:19:18;;;;;;;;;;;;;;;6.91;55.11;101377.25;117335;1185;23541;-58
2022/02/12 07:21:46;;;;;;;;;;;;;;;6.89;55.07;101383.85;117336;1185;21839;-56
2022/02/12 07:24:14;;;;;;;;;;;;;;;6.89;54.81;101387.87;117345;1185;23480;-56
2022/02/12 07:26:51;;;;;;;;;;;;;;;6.90;55.09;101390.16;117390;1185;23417;-58
2022/02/12 07:29:19;;;;;;;;;;;;;;;6.93;54.94;101395.10;117367;1182;21877;-56
2022/02/12 07:31:47;;;;;;;;;;;;;;;6.95;54.90;101398.80;117360;1185;21841;-58
2022/02/12 07:34:18;;;;;;;;;;;;;;;6.96;54.99;101403.20;117354;1185;21832;-56
2022/02/12 07:36:47;;;;;;;;;;;;;;;6.97;54.82;101404.77;117419;1185;21838;-56
2022/02/12 07:39:15;;;;;;;;;;;;;;;6.98;55.15;101408.11;117389;1185;22908;-58
2022/02/12 07:41:43;;;;;;;;;;;;;;;6.97;54.91;101407.20;117449;1185;21897;-56
2022/02/12 07:44:12;;;;;;;;;;;;;;;6.95;54.94;101408.40;117468;1185;24134;-58
2022/02/12 07:46:41;;;;;;;;;;;;;;;6.94;55.06;101406.29;117449;1185;22086;-56
2022/02/12 07:49:10;;;;;;;;;;;;;;;6.92;54.68;101403.27;117369;1185;21865;-56
2022/02/12 07:51:38;;;;;;;;;;;;;;;6.91;54.89;101400.98;117364;1185;23443;-56
2022/02/12 07:54:06;;;;;;;;;;;;;;;6.88;54.84;101400.93;117347;1183;21835;-58
2022/02/12 07:56:34;;;;;;;;;;;;;;;6.87;54.82;101405.10;117426;1185;21844;-55
2022/02/12 07:59:02;;;;;;;;;;;;;;;6.84;54.75;101408.20;117419;1185;24126;-55
2022/02/12 08:01:31;;;;;;;;;;;;;;;6.83;54.96;101416.73;117289;1185;23417;-55
2022/02/12 08:04:00;;;;;;;;;;;;;;;6.85;54.85;101422.52;117378;1184;23515;-58
2022/02/12 08:09:19;;;;;;;;;;;;;;;6.89;55.05;101417.00;117328;1185;23494;-55
2022/02/12 08:11:53;;;;;;;;;;;;;;;6.92;55.24;101419.67;117368;1182;23518;-56
2022/02/12 08:14:21;;;;;;;;;;;;;;;6.92;55.15;101422.84;117337;1185;21954;-56
2022/02/12 08:16:49;;;;;;;;;;;;;;;6.93;55.21;101429.83;117401;1185;22766;-55
2022/02/12 08:19:18;;;;;;;;;;;;;;;6.92;55.08;101435.89;117319;1185;23519;-58
2022/02/12 08:21:47;;;;;;;;;;;;;;;6.89;55.42;101447.36;117359;1185;24128;-55
2022/02/12 08:24:15;;;;;;;;;;;;;;;6.91;55.12;101448.79;117368;1179;21829;-58
2022/02/12 08:26:43;;;;;;;;;;;;;;;6.90;55.11;101452.80;117363;1185;23888;-58
2022/02/12 08:29:13;;;;;;;;;;;;;;;6.91;55.07;101460.48;117389;1182;22707;-58
2022/02/12 08:31:41;;;;;;;;;;;;;;;6.91;55.02;101455.45;117360;1185;23541;-55
2022/02/12 08:34:10;;;;;;;;;;;;;;;6.92;55.15;101467.34;117376;1185;23477;-56
2022/02/12 08:36:38;;;;;;;;;;;;;;;6.94;55.07;101472.77;117340;1176;23854;-55
2022/02/12 08:39:06;;;;;;;;;;;;;;;6.94;55.10;101480.80;117465;1185;24194;-57
2022/02/12 08:41:34;;;;;;;;;;;;;;;6.99;55.09;101486.64;117366;1186;22978;-56
2022/02/12 08:44:03;;;;;;;;;;;;;;;6.98;55.11;101493.95;117425;1185;23611;-59
2022/02/12 08:46:31;;;;;;;;;;;;;;;6.98;55.14;101504.77;117411;1186;23563;-57
2022/02/12 08:48:59;;;;;;;;;;;;;;;7.01;54.93;101515.15;117377;1182;23535;-56
2022/02/12 08:51:27;;;;;;;;;;;;;;;7.05;55.24;101514.54;117393;1185;22885;-56
2022/02/12 08:53:56;;;;;;;;;;;;;;;7.10;55.19;101515.66;117351;1185;21845;-57
2022/02/12 08:56:26;;;;;;;;;;;;;;;7.14;54.95;101520.64;117292;1185;23462;-58
2022/02/12 08:58:54;;;;;;;;;;;;;;;7.19;55.32;101529.81;117479;1185;22628;-55
2022/02/12 09:01:22;;;;;;;;;;;;;;;7.26;55.39;101529.80;117382;1185;21844;-56
2022/02/12 09:03:50;;;;;;;;;;;;;;;7.34;55.10;101535.16;117381;1183;21918;-57
2022/02/12 09:06:19;;;;;;;;;;;;;;;7.37;54.83;101534.71;117327;1185;21839;-56
2022/02/12 09:08:56;;;;;;;;;;;;;;;7.43;54.85;101535.16;117366;1182;21897;-58
2022/02/12 09:11:28;;;;;;;;;;;;;;;7.47;54.86;101543.11;117387;1182;22925;-56
2022/02/12 09:13:56;;;;;;;;;;;;;;;7.52;54.92;101546.67;117333;1182;21866;-55
2022/02/12 09:16:25;;;;;;;;;;;;;;;7.57;54.81;101541.55;117330;1185;21855;-56
2022/02/12 09:18:53;;;;;;;;;;;;;;;7.66;54.79;101541.73;117400;1185;21829;-56
2022/02/12 09:21:22;;;;;;;;;;;;;;;7.74;54.84;101542.73;117367;1185;21844;-57
2022/02/12 09:23:51;;;;;;;;;;;;;;;7.80;54.54;101545.64;117413;1185;24225;-59
2022/02/12 09:26:30;;;;;;;;;;;;;;;7.89;54.46;101549.30;117321;1183;23443;-56
2022/02/12 09:29:00;;;;;;;;;;;;;;;7.95;54.41;101550.10;117387;1185;21848;-58
2022/02/12 09:31:32;;;;;;;;;;;;;;;8.03;54.40;101554.41;117327;1185;21927;-56
2022/02/12 09:34:00;;;;;;;;;;;;;;;8.16;54.28;101552.54;117428;1185;21888;-56
2022/02/12 09:36:28;;;;;;;;;;;;;;;8.33;54.65;101557.54;117493;1185;23494;-58
2022/02/12 09:38:57;;;;;;;;;;;;;;;8.55;54.81;101553.34;117369;1186;21839;-58
2022/02/12 09:41:29;;;;;;;;;;;;;;;8.69;54.49;101559.13;117401;1182;24134;-57
2022/02/12 09:43:57;;;;;;;;;;;;;;;8.75;54.36;101559.59;117427;1185;21839;-58
2022/02/12 09:46:29;;;;;;;;;;;;;;;8.79;54.48;101554.58;117444;1185;23076;-56
2022/02/12 09:48:58;;;;;;;;;;;;;;;8.93;54.47;101555.45;117224;1185;23006;-57
2022/02/12 09:51:26;;;;;;;;;;;;;;;9.05;54.30;101554.55;117361;1182;23443;-58
2022/02/12 09:53:55;;;;;;;;;;;;;;;9.15;53.99;101554.14;117361;1185;22814;-59
2022/02/12 09:56:23;;;;;;;;;;;;;;;9.25;53.89;101559.38;117424;1186;21831;-57
2022/02/12 09:58:52;;;;;;;;;;;;;;;9.37;53.75;101567.73;117346;1189;23426;-56
2022/02/12 10:01:20;;;;;;;;;;;;;;;9.39;53.38;101570.20;117340;1186;23440;-58
2022/02/12 10:03:52;;;;;;;;;;;;;;;9.36;53.06;101574.02;117427;1186;22815;-59
2022/02/12 10:06:41;;;;;;;;;;;;;;;9.33;53.07;101577.85;117455;1185;21829;-56
2022/02/12 10:09:10;;;;;;;;;;;;;;;9.31;53.06;101583.77;117421;1186;22197;-59
2022/02/12 10:12:04;;;;;;;;;;;;;;;9.26;52.56;101587.39;117409;1185;22628;-57
2022/02/12 10:14:35;;;;;;;;;;;;;;;9.24;52.78;101592.98;117369;1186;21840;-56
2022/02/12 10:17:04;;;;;;;;;;;;;;;9.18;52.81;101597.81;117378;1183;21870;-56
2022/02/12 10:19:34;;;;;;;;;;;;;;;9.15;52.94;101597.06;117329;1186;22702;-56
2022/02/12 10:22:04;;;;;;;;;;;;;;;9.16;53.24;101602.15;117288;1183;23534;-56
2022/02/12 10:24:52;;;;;;;;;;;;;;;9.20;53.09;101598.88;117414;1185;21842;-58
2022/02/12 10:27:22;;;;;;;;;;;;;;;9.21;53.12;101596.96;117463;1179;21844;-57
2022/02/12 10:29:51;;;;;;;;;;;;;;;9.25;52.74;101597.72;117365;1185;21915;-57
2022/02/12 10:32:23;;;;;;;;;;;;;;;9.26;52.61;101597.72;117300;1185;23817;-56
2022/02/12 10:34:52;;;;;;;;;;;;;;;9.22;52.35;101599.61;117377;1186;22982;-57
2022/02/12 10:37:22;;;;;;;;;;;;;;;9.18;52.32;101607.09;117387;1186;22908;-58
2022/02/12 10:39:50;;;;;;;;;;;;;;;9.10;52.14;101605.23;117331;1183;21857;-58
2022/02/12 10:42:18;;;;;;;;;;;;;;;9.01;52.27;101616.31;117209;1186;23650;-58
2022/02/12 10:44:48;;;;;;;;;;;;;;;8.95;52.44;101613.77;117177;1186;23528;-56
2022/02/12 10:47:17;;;;;;;;;;;;;;;8.93;52.24;101622.31;117385;1186;24136;-56
2022/02/12 10:49:46;;;;;;;;;;;;;;;8.86;52.00;101628.69;117316;1185;22923;-58
2022/02/12 10:52:14;;;;;;;;;;;;;;;8.78;52.06;101633.48;117435;1185;21839;-58
2022/02/12 10:54:46;;;;;;;;;;;;;;;8.74;52.17;101629.23;117974;1185;21847;-58
2022/02/12 10:57:15;;;;;;;;;;;;;;;8.69;52.12;101634.75;117351;1183;22796;-56
2022/02/12 10:59:44;;;;;;;;;;;;;;;8.66;52.24;101641.88;117334;1185;22603;-57
2022/02/12 11:02:17;;;;;;;;;;;;;;;8.67;52.23;101647.83;117405;1189;22908;-57
2022/02/12 11:04:47;;;;;;;;;;;;;;;8.68;52.08;101652.92;117357;1185;22928;-56
2022/02/12 11:07:15;;;;;;;;;;;;;;;8.75;52.25;101650.42;117430;1185;23449;-58
2022/02/12 11:09:44;;;;;;;;;;;;;;;8.78;51.95;101656.94;117390;1185;23605;-59
2022/02/12 11:12:13;;;;;;;;;;;;;;;8.73;51.68;101660.17;117360;1186;23426;-58
2022/02/12 11:14:43;;;;;;;;;;;;;;;8.64;51.56;101664.23;117306;1185;21831;-58
2022/02/12 11:17:12;;;;;;;;;;;;;;;8.59;51.76;101674.13;117280;1185;21935;-59
2022/02/12 11:19:40;;;;;;;;;;;;;;;8.57;51.71;101677.77;117388;1185;22982;-57
2022/02/12 11:22:09;;;;;;;;;;;;;;;8.56;51.98;101685.11;117345;1182;23525;-56
2022/02/12 11:24:38;;;;;;;;;;;;;;;8.58;51.97;101694.25;117375;1182;23541;-59
2022/02/12 11:27:16;;;;;;;;;;;;;;;8.55;51.77;101695.59;117327;1182;22973;-58
2022/02/12 11:29:45;;;;;;;;;;;;;;;8.49;51.85;101696.52;117365;1183;22982;-59
2022/02/12 11:32:24;;;;;;;;;;;;;;;8.46;52.12;101697.49;117346;1186;21829;-56
2022/02/12 11:34:52;;;;;;;;;;;;;;;8.45;51.97;101698.88;117393;1182;21844;-57
2022/02/12 11:37:20;;;;;;;;;;;;;;;8.45;51.81;101698.01;117370;1184;22384;-57
2022/02/12 11:40:07;;;;;;;;;;;;;;;8.44;51.58;101709.52;117375;1185;22666;-57
2022/02/12 11:42:45;;;;;;;;;;;;;;;8.44;51.76;101713.20;117311;1185;22909;-58
2022/02/12 11:45:19;;;;;;;;;;;;;;;8.44;51.37;101710.91;117295;1183;22912;-56
2022/02/12 11:48:06;;;;;;;;;;;;;;;8.43;51.45;101715.63;117353;1182;24149;-57
2022/02/12 11:50:41;;;;;;;;;;;;;;;8.45;51.63;101724.08;117372;1185;23443;-58
2022/02/12 11:53:27;;;;;;;;;;;;;;;8.50;51.72;101724.02;117391;1186;22899;-58
2022/02/12 11:55:56;;;;;;;;;;;;;;;8.51;51.37;101722.97;117373;1182;21850;-56
2022/02/12 11:58:42;;;;;;;;;;;;;;;8.48;51.02;101733.58;117365;1185;23663;-56
2022/02/12 12:01:23;;;;;;;;;;;;;;;8.45;51.13;101733.34;117618;1185;21895;-58
2022/02/12 12:04:25;;;;;;;;;;;;;;;8.43;51.13;101742.04;117278;1183;24507;-58
2022/02/12 12:07:04;;;;;;;;;;;;;;;8.40;50.56;101749.16;117297;1176;23538;-56
2022/02/12 12:09:33;;;;;;;;;;;;;;;8.34;51.01;101758.34;117384;1185;23000;-58
2022/02/12 12:12:10;;;;;;;;;;;;;;;8.38;51.48;101760.13;117341;1185;23435;-56
2022/02/12 12:14:38;;;;;;;;;;;;;;;8.41;51.32;101764.75;117359;1183;21839;-58
2022/02/12 12:17:07;;;;;;;;;;;;;;;8.43;51.51;101764.77;117355;1185;23516;-57
2022/02/12 12:19:36;;;;;;;;;;;;;;;8.44;51.51;101766.36;117356;1185;21842;-57
2022/02/12 12:22:07;;;;;;;;;;;;;;;8.42;51.41;101768.42;117356;1186;22907;-57
2022/02/12 12:24:35;;;;;;;;;;;;;;;8.40;51.42;101771.37;117352;1186;22673;-59
2022/02/12 12:27:03;;;;;;;;;;;;;;;8.35;51.26;101777.23;117366;1185;23414;-59
2022/02/12 12:32:19;;;;;;;;;;;;;;;8.28;51.58;101776.59;117451;1186;23004;-57
2022/02/12 12:35:00;;;;;;;;;;;;;;;8.26;51.36;101782.30;117372;1185;21838;-57
2022/02/12 12:37:33;;;;;;;;;;;;;;;8.27;51.43;101786.17;117197;1182;23532;-59
2022/02/12 12:40:02;;;;;;;;;;;;;;;8.26;51.32;101787.91;117447;1182;24136;-59
2022/02/12 12:42:31;;;;;;;;;;;;;;;8.27;51.42;101791.59;117555;1183;21870;-57
2022/02/12 12:44:59;;;;;;;;;;;;;;;8.27;51.45;101792.82;117246;1182;23519;-58
2022/02/12 12:47:29;;;;;;;;;;;;;;;8.28;51.46;101793.88;117368;1186;24140;-56
2022/02/12 12:49:58;;;;;;;;;;;;;;;8.31;51.37;101791.48;117356;1182;21870;-56
2022/02/12 12:52:26;;;;;;;;;;;;;;;8.33;51.26;101793.81;117366;1186;23849;-56
2022/02/12 12:54:57;;;;;;;;;;;;;;;8.34;51.40;101797.16;117344;1186;21891;-57
2022/02/12 12:57:29;;;;;;;;;;;;;;;8.36;50.87;101798.92;117361;1186;24155;-56